New Orleans, Louisiana
Traffic Map
Current Weather Conditions
New Orleans, Louisiana
Overcast
Overcast
28°
Feels Like: 32°
Wind Chill: 28° Ceiling: 11000
Heat Index: 32° Visibility: 9mi
Dew Point: 24° Wind: 7mph
Humidity: 79% Direction: 140° (SE)
Pressure: 30.1in Gusts: 0mph
Raw Report DataK7N0 021655Z AUTO 14006KT 9SM OVC110 28/24 A3010 RMK AO1
Traffic Incident Summary
Active as of:
Severity:
Category:
InformationThere was an issue retrieving the traffic information for this location. Please try a different location or try again shortly.
Advertisements
Track Severe Weather on mobile